Time;durP1;ratioP1;P1;durP2;ratioP2;P2;SDS_P1;SDS_P2;PMS_P1;PMS_P2;Temp;Humidity;BMP_temperature;BMP_pressure;BME280_temperature;BME280_humidity;BME280_pressure;Samples;Min_cycle;Max_cycle;Signal;HPM_P1;HPM_P2
2022/11/16 00:01:16;;;;;;;27.53;9.30;;;;;;;41.40;36.72;101120.88;5100447;27;20448;-74
2022/11/16 00:03:42;;;;;;;12.70;8.27;;;;;;;41.49;36.76;101121.63;5117491;27;20425;-72
2022/11/16 00:06:10;;;;;;;25.60;9.67;;;;;;;41.64;36.72;101119.53;5117411;27;20452;-73
2022/11/16 00:08:40;;;;;;;11.00;8.00;;;;;;;41.65;36.45;101123.84;5117179;27;20407;-73
2022/11/16 00:11:14;;;;;;;14.33;9.67;;;;;;;41.81;35.74;101117.56;5135988;27;20806;-74
2022/11/16 00:13:42;;;;;;;20.00;8.70;;;;;;;41.70;36.20;101115.50;5100973;27;20455;-75
2022/11/16 00:16:14;;;;;;;12.73;7.00;;;;;;;41.54;36.37;101109.78;5117278;27;20457;-75
2022/11/16 00:18:40;;;;;;;20.73;9.47;;;;;;;41.79;35.61;101111.63;5117124;27;20419;-75
2022/11/16 00:21:06;;;;;;;24.50;9.47;;;;;;;41.47;36.28;101113.00;5100743;27;20430;-74
2022/11/16 00:23:37;;;;;;;12.70;7.60;;;;;;;41.37;36.35;101104.38;5116991;27;20417;-73
2022/11/16 00:26:09;;;;;;;29.33;10.63;;;;;;;41.62;36.02;101106.25;5084112;27;20917;-73
2022/11/16 00:28:35;;;;;;;16.80;8.70;;;;;;;41.64;36.30;101095.00;5116933;27;20964;-73
2022/11/16 00:31:03;;;;;;;18.40;11.40;;;;;;;41.23;36.81;101091.72;5116940;27;20438;-73
2022/11/16 00:33:30;;;;;;;15.43;8.80;;;;;;;41.27;36.49;101091.91;5116774;27;20882;-73
2022/11/16 00:35:56;;;;;;;18.47;7.90;;;;;;;41.43;36.08;101084.03;5116988;27;20403;-73
2022/11/16 00:38:23;;;;;;;11.77;7.80;;;;;;;41.43;36.05;101087.53;5114509;27;20436;-73
2022/11/16 00:40:49;;;;;;;19.33;9.07;;;;;;;41.45;35.87;101077.13;5106768;27;21057;-73
2022/11/16 00:43:15;;;;;;;16.90;9.43;;;;;;;41.25;36.32;101077.78;5116489;27;20445;-73
2022/11/16 00:45:42;;;;;;;14.30;8.10;;;;;;;41.27;35.91;101073.63;5099824;27;20440;-73
2022/11/16 00:48:09;;;;;;;16.77;7.33;;;;;;;40.87;36.89;101073.03;5116456;27;20410;-75
2022/11/16 00:50:36;;;;;;;15.97;7.87;;;;;;;40.75;36.93;101073.69;5113083;28;20471;-75
2022/11/16 00:53:02;;;;;;;18.13;9.00;;;;;;;41.23;36.32;101071.88;5114549;28;20474;-74
2022/11/16 00:55:28;;;;;;;17.50;8.87;;;;;;;41.09;36.59;101069.34;5113166;28;20491;-75
2022/11/16 00:57:54;;;;;;;17.60;8.67;;;;;;;40.85;36.90;101069.84;5112885;28;20515;-75
2022/11/16 01:00:20;;;;;;;16.13;8.77;;;;;;;41.10;36.20;101068.22;5112516;28;20458;-75
2022/11/16 01:02:46;;;;;;;18.43;9.93;;;;;;;41.28;36.18;101058.91;5112889;28;20412;-74
2022/11/16 01:05:12;;;;;;;16.43;7.70;;;;;;;41.28;36.43;101058.09;5114280;28;20812;-74
2022/11/16 01:07:39;;;;;;;13.80;8.40;;;;;;;41.23;36.57;101061.00;5112782;28;20481;-73
2022/11/16 01:10:14;;;;;;;15.00;8.40;;;;;;;41.44;36.09;101059.22;5112735;28;20426;-73
2022/11/16 01:12:40;;;;;;;18.27;7.40;;;;;;;41.05;36.96;101049.34;5112482;28;20467;-73
2022/11/16 01:15:08;;;;;;;18.53;9.03;;;;;;;41.33;36.68;101049.81;5112613;28;20420;-73
2022/11/16 01:17:35;;;;;;;12.73;8.70;;;;;;;41.30;36.66;101039.50;5112763;28;20478;-73
2022/11/16 01:20:04;;;;;;;14.67;9.90;;;;;;;41.20;36.95;101050.78;5112531;28;20416;-73
2022/11/16 01:22:31;;;;;;;15.37;7.57;;;;;;;41.19;36.52;101040.97;5112516;28;20424;-73
2022/11/16 01:24:57;;;;;;;29.17;12.43;;;;;;;41.17;36.68;101037.78;5112471;28;20807;-73
2022/11/16 01:27:24;;;;;;;20.10;9.73;;;;;;;41.26;36.86;101036.66;5112351;28;20423;-75
2022/11/16 01:29:50;;;;;;;13.20;8.70;;;;;;;41.47;36.35;101035.97;5113910;28;20154;-75
2022/11/16 01:32:16;;;;;;;24.50;7.93;;;;;;;41.21;36.46;101034.09;5103034;28;20475;-75
2022/11/16 01:34:42;;;;;;;19.47;8.30;;;;;;;41.50;36.23;101027.16;5091879;28;20417;-74
2022/11/16 01:37:08;;;;;;;21.13;8.70;;;;;;;41.11;37.05;101026.28;5093336;28;20420;-74
2022/11/16 01:39:34;;;;;;;19.57;8.87;;;;;;;41.31;36.40;101022.06;5074963;28;20213;-73
2022/11/16 01:42:00;;;;;;;23.07;9.60;;;;;;;41.10;37.23;101013.81;5091732;28;20829;-73
2022/11/16 01:44:32;;;;;;;17.87;10.37;;;;;;;41.18;37.02;101007.53;5091729;28;20551;-73
2022/11/16 01:47:03;;;;;;;22.03;8.40;;;;;;;41.25;36.48;101005.13;5091729;28;20437;-73
2022/11/16 01:49:33;;;;;;;28.07;10.67;;;;;;;41.42;36.25;101001.53;5091595;28;20440;-73
2022/11/16 01:52:07;;;;;;;13.97;8.57;;;;;;;40.61;37.52;100996.13;5074939;28;20846;-73
2022/11/16 01:54:39;;;;;;;16.33;9.30;;;;;;;41.05;36.92;100995.72;5074113;28;20483;-73
2022/11/16 01:57:08;;;;;;;18.93;8.67;;;;;;;40.82;37.56;100988.88;5091599;28;20470;-73
2022/11/16 01:59:35;;;;;;;16.73;9.03;;;;;;;41.05;37.06;100993.00;5091397;28;20506;-73
2022/11/16 02:02:02;;;;;;;22.60;10.10;;;;;;;40.96;37.05;100994.16;5091471;28;20412;-73
2022/11/16 02:04:28;;;;;;;16.33;8.17;;;;;;;40.85;37.20;100996.41;5091456;28;20471;-73
2022/11/16 02:07:06;;;;;;;14.87;10.10;;;;;;;41.07;36.95;101000.88;5091325;28;20451;-73
2022/11/16 02:09:54;;;;;;;21.00;9.67;;;;;;;40.68;37.68;101002.66;5091405;28;20504;-73
2022/11/16 02:12:41;;;;;;;21.47;10.27;;;;;;;41.04;37.43;100998.78;5093083;28;20856;-73
2022/11/16 02:15:24;;;;;;;14.47;8.80;;;;;;;41.23;37.05;101001.13;5091369;28;20490;-73
2022/11/16 02:18:14;;;;;;;21.23;9.80;;;;;;;41.07;37.11;101000.88;5092907;28;20389;-74
2022/11/16 02:20:59;;;;;;;23.73;10.03;;;;;;;41.08;37.54;100997.00;5091653;28;20988;-74
2022/11/16 02:23:46;;;;;;;23.13;10.73;;;;;;;40.96;37.56;100996.88;5091344;28;20927;-74
2022/11/16 02:26:27;;;;;;;17.00;9.57;;;;;;;41.12;37.42;100989.78;5091257;28;20498;-74
2022/11/16 02:29:20;;;;;;;19.47;10.30;;;;;;;40.91;37.34;100989.69;5091188;28;20439;-73
2022/11/16 02:32:08;;;;;;;22.90;9.40;;;;;;;41.27;36.94;100989.25;5091044;28;20452;-74
2022/11/16 02:35:01;;;;;;;13.20;9.80;;;;;;;41.05;37.03;100978.59;5091149;28;20544;-73
2022/11/16 02:37:32;;;;;;;32.47;9.20;;;;;;;41.06;37.41;100986.44;5092479;28;20915;-73
2022/11/16 02:40:02;;;;;;;16.77;9.73;;;;;;;41.00;37.19;100973.34;5092509;28;20441;-73
2022/11/16 02:42:35;;;;;;;25.73;8.73;;;;;;;41.19;36.63;100975.66;5092856;28;20405;-74
2022/11/16 02:45:04;;;;;;;18.73;9.30;;;;;;;41.03;37.02;100981.66;5091031;28;20440;-73
2022/11/16 02:47:34;;;;;;;21.23;10.23;;;;;;;40.94;37.41;100974.63;5074625;28;20516;-74
2022/11/16 02:50:13;;;;;;;17.57;9.57;;;;;;;40.78;37.45;100972.41;5074392;28;20444;-74
2022/11/16 02:52:39;;;;;;;15.13;9.50;;;;;;;40.19;38.60;100982.19;5054610;28;20492;-73
2022/11/16 02:55:06;;;;;;;17.00;10.20;;;;;;;40.95;37.22;100976.25;5054135;28;20429;-73
2022/11/16 02:57:45;;;;;;;15.37;9.87;;;;;;;41.02;36.89;100969.19;5071043;28;20479;-74
2022/11/16 03:00:19;;;;;;;38.90;10.63;;;;;;;40.57;37.53;100979.63;5070806;28;20453;-73
2022/11/16 03:02:54;;;;;;;15.00;9.90;;;;;;;40.69;37.90;100976.25;5070725;28;20519;-76
2022/11/16 03:05:44;;;;;;;17.70;8.57;;;;;;;40.84;37.20;100981.19;5071623;28;20432;-75
2022/11/16 03:08:24;;;;;;;20.47;8.77;;;;;;;41.24;36.27;100973.56;5076183;28;20424;-76
2022/11/16 03:13:43;;;;;;;22.83;11.17;;;;;;;41.10;37.09;100970.25;5075870;28;20385;-74
2022/11/16 03:16:24;;;;;;;20.37;9.13;;;;;;;40.76;36.95;100974.66;5074253;28;20860;-74
2022/11/16 03:18:54;;;;;;;17.33;9.00;;;;;;;41.12;36.74;100975.38;5075414;28;20405;-74
2022/11/16 03:21:51;;;;;;;23.77;11.43;;;;;;;40.52;37.85;100979.81;5075836;28;20408;-74
2022/11/16 03:24:17;;;;;;;21.60;8.80;;;;;;;40.61;37.74;100971.66;5057693;28;20420;-74
2022/11/16 03:26:53;;;;;;;15.23;8.67;;;;;;;40.78;37.07;100980.56;5075616;28;20772;-74
2022/11/16 03:29:50;;;;;;;13.80;8.70;;;;;;;41.32;36.79;100982.84;5074462;28;20514;-74
2022/11/16 03:32:42;;;;;;;18.50;10.80;;;;;;;40.99;37.16;100982.63;5073900;28;20456;-73
2022/11/16 03:35:31;;;;;;;43.70;10.90;;;;;;;40.58;37.51;100983.97;5073890;28;20503;-74
2022/11/16 03:38:00;;;;;;;23.67;7.60;;;;;;;40.92;37.19;100985.84;5074098;28;20495;-73
2022/11/16 03:40:29;;;;;;;22.43;10.70;;;;;;;40.84;37.03;100988.56;5086616;28;20955;-73
2022/11/16 03:42:58;;;;;;;19.73;9.90;;;;;;;40.65;38.12;100992.44;5094682;28;20417;-73
2022/11/16 03:45:24;;;;;;;11.93;8.27;;;;;;;40.69;37.48;100992.56;5094072;28;20413;-73
2022/11/16 03:47:50;;;;;;;16.97;9.33;;;;;;;40.72;37.79;100987.31;5077303;28;20477;-73
2022/11/16 03:50:16;;;;;;;17.00;8.90;;;;;;;40.98;36.96;100994.63;5098318;27;20941;-74
2022/11/16 03:52:42;;;;;;;17.10;10.57;;;;;;;40.73;37.74;100993.53;5100661;27;20525;-73
2022/11/16 03:55:09;;;;;;;12.33;8.27;;;;;;;40.99;37.05;100994.31;5136419;27;20913;-74
2022/11/16 03:57:35;;;;;;;25.07;9.90;;;;;;;41.04;36.22;100996.06;5117486;27;20426;-74
2022/11/16 04:00:01;;;;;;;30.27;10.73;;;;;;;40.72;37.30;101000.09;5117491;27;20439;-73
2022/11/16 04:02:27;;;;;;;18.80;10.30;;;;;;;40.32;38.12;101007.59;5117391;27;20415;-73
2022/11/16 04:24:20;;;;;;;28.67;11.77;;;;;;;40.57;38.40;101035.94;5135676;27;20390;-74
2022/11/16 04:29:37;;;;;;;16.50;10.50;;;;;;;40.67;38.29;101022.81;5120797;27;20395;-74
2022/11/16 04:37:47;;;;;;;28.23;15.17;;;;;;;40.18;39.09;101041.16;5114780;28;20392;-74
2022/11/16 04:40:18;;;;;;;22.37;14.00;;;;;;;40.50;38.92;101042.66;5114938;28;20396;-74
2022/11/16 04:42:55;;;;;;;18.60;14.80;;;;;;;40.50;38.62;101042.66;5096340;28;20910;-74
2022/11/16 04:48:06;;;;;;;23.93;15.73;;;;;;;40.84;38.01;101051.94;5099411;28;20514;-74
2022/11/16 04:50:33;;;;;;;21.23;12.30;;;;;;;40.91;38.27;101054.19;5096116;28;20558;-74
2022/11/16 04:52:59;;;;;;;25.33;13.90;;;;;;;40.60;38.25;101055.13;5114611;28;20496;-73
2022/11/16 04:55:25;;;;;;;22.53;12.37;;;;;;;40.44;39.01;101059.41;5114603;28;20404;-74
2022/11/16 04:57:52;;;;;;;20.90;14.90;;;;;;;40.42;38.91;101061.66;5095992;28;20449;-74
2022/11/16 05:00:18;;;;;;;25.73;12.80;;;;;;;40.64;38.81;101053.38;5079069;28;20415;-74
2022/11/16 05:02:44;;;;;;;19.90;14.77;;;;;;;40.38;39.29;101060.69;5095872;28;20415;-75
2022/11/16 05:05:11;;;;;;;17.03;13.13;;;;;;;40.56;38.48;101056.88;5114384;28;20478;-75
2022/11/16 05:07:37;;;;;;;27.83;14.10;;;;;;;40.69;38.69;101060.56;5079059;28;20451;-75
2022/11/16 05:10:04;;;;;;;26.47;16.80;;;;;;;40.43;38.76;101061.34;5114379;28;20400;-74
2022/11/16 05:12:30;;;;;;;23.30;16.03;;;;;;;40.47;38.44;101064.22;5095823;28;20463;-74
2022/11/16 05:14:56;;;;;;;27.07;18.20;;;;;;;40.02;39.21;101048.97;5095644;28;20422;-73
2022/11/16 05:17:23;;;;;;;25.80;18.53;;;;;;;40.09;39.60;101056.66;5114073;28;20478;-73
2022/11/16 05:22:35;;;;;;;30.10;20.80;;;;;;;40.36;39.10;101068.38;5114132;28;20407;-73
2022/11/16 05:25:04;;;;;;;36.47;20.40;;;;;;;40.00;39.62;101067.47;5113605;28;20388;-73
2022/11/16 05:27:30;;;;;;;28.57;20.07;;;;;;;40.16;39.23;101065.16;5095467;28;20424;-73
2022/11/16 05:29:56;;;;;;;38.53;21.83;;;;;;;39.98;39.75;101069.72;5112697;28;20890;-73
2022/11/16 05:32:24;;;;;;;28.40;23.20;;;;;;;40.24;39.28;101072.50;5084613;28;20459;-74
2022/11/16 05:34:51;;;;;;;42.57;22.27;;;;;;;40.27;39.14;101071.88;5112297;28;20416;-75
2022/11/16 05:37:19;;;;;;;30.77;22.73;;;;;;;40.34;38.99;101078.78;5078803;28;20438;-75
2022/11/16 05:39:49;;;;;;;37.43;19.93;;;;;;;39.91;39.57;101084.88;5095701;28;20421;-73
2022/11/16 05:42:15;;;;;;;26.37;19.23;;;;;;;40.40;38.74;101081.03;5113696;28;20871;-73
2022/11/16 05:44:41;;;;;;;25.67;18.97;;;;;;;40.01;39.69;101087.28;5112061;28;20424;-73
2022/11/16 05:47:07;;;;;;;36.07;21.50;;;;;;;40.18;39.08;101081.94;5112105;28;20420;-73
2022/11/16 05:49:33;;;;;;;30.67;20.30;;;;;;;40.23;39.25;101087.22;5094971;28;20455;-73
2022/11/16 05:51:59;;;;;;;26.67;19.30;;;;;;;39.93;39.38;101088.06;5091650;28;20324;-73
2022/11/16 05:54:25;;;;;;;26.47;17.57;;;;;;;40.19;38.87;101094.41;5108655;28;20495;-73
2022/11/16 05:56:52;;;;;;;40.47;22.53;;;;;;;40.11;39.08;101092.47;5093035;28;20401;-73
2022/11/16 05:59:20;;;;;;;31.70;20.53;;;;;;;39.30;40.49;101100.84;5108474;28;20441;-73
2022/11/16 06:01:46;;;;;;;30.70;21.37;;;;;;;39.67;39.95;101099.63;5091614;28;20416;-74
2022/11/16 06:04:13;;;;;;;30.27;23.43;;;;;;;39.46;40.54;101106.66;5091730;28;20439;-73
2022/11/16 06:06:40;;;;;;;29.80;20.17;;;;;;;39.52;40.52;101104.63;5093032;28;20420;-72
2022/11/16 06:09:07;;;;;;;35.97;22.07;;;;;;;39.38;40.80;101105.53;5093306;28;20385;-73
2022/11/16 06:11:35;;;;;;;26.80;19.23;;;;;;;39.10;40.73;101110.28;5108187;28;20807;-74
2022/11/16 06:14:01;;;;;;;30.17;20.23;;;;;;;39.51;40.27;101122.84;5093064;28;20404;-77
2022/11/16 06:16:27;;;;;;;30.20;21.27;;;;;;;39.37;40.62;101113.97;5108363;28;20413;-73
2022/11/16 06:18:52;;;;;;;29.53;21.10;;;;;;;39.50;40.34;101121.22;5092757;28;20931;-73
2022/11/16 06:21:19;;;;;;;48.43;22.63;;;;;;;39.67;40.20;101128.72;5104886;28;20455;-73
2022/11/16 06:23:45;;;;;;;31.73;19.80;;;;;;;39.83;40.00;101118.22;5100612;28;20454;-74
2022/11/16 06:26:12;;;;;;;36.67;22.20;;;;;;;39.74;39.98;101129.06;5102780;28;20917;-73
2022/11/16 06:28:38;;;;;;;24.50;18.73;;;;;;;39.94;39.38;101130.41;5109828;28;20529;-73
2022/11/16 06:31:05;;;;;;;32.57;22.60;;;;;;;39.94;39.58;101131.22;5108809;28;20463;-73
2022/11/16 06:33:31;;;;;;;29.20;22.20;;;;;;;39.22;40.54;101136.84;5075779;28;20543;-73
2022/11/16 06:35:57;;;;;;;35.60;22.67;;;;;;;39.18;40.67;101138.59;5111541;28;20474;-73
2022/11/16 06:38:23;;;;;;;36.13;22.13;;;;;;;39.86;39.90;101142.06;5098866;28;20431;-75
2022/11/16 06:40:53;;;;;;;38.47;21.70;;;;;;;39.46;40.69;101156.34;5100382;28;20794;-73
2022/11/16 06:43:20;;;;;;;34.23;23.27;;;;;;;39.81;39.59;101161.19;5104082;28;20433;-75
2022/11/16 06:45:51;;;;;;;42.27;23.13;;;;;;;39.38;40.80;101159.00;5115732;28;20510;-75
2022/11/16 06:48:18;;;;;;;29.80;20.60;;;;;;;39.25;40.91;101171.53;5114788;28;20498;-74
2022/11/16 06:50:46;;;;;;;29.77;21.03;;;;;;;39.89;39.89;101163.94;5115285;28;20555;-73
2022/11/16 06:53:13;;;;;;;32.97;21.87;;;;;;;39.98;39.35;101172.94;5115076;28;20475;-73
2022/11/16 06:55:39;;;;;;;31.67;21.53;;;;;;;39.54;40.32;101168.38;5115234;28;20432;-73
2022/11/16 06:58:04;;;;;;;35.87;22.40;;;;;;;38.93;41.58;101170.59;5111937;28;20477;-78
2022/11/16 07:00:31;;;;;;;37.80;21.13;;;;;;;38.89;41.53;101175.03;5116671;28;20162;-77
2022/11/16 07:02:57;;;;;;;33.07;22.30;;;;;;;39.20;41.06;101187.91;5114544;28;20442;-76
2022/11/16 07:05:23;;;;;;;30.20;20.57;;;;;;;39.75;40.36;101183.06;5106104;28;20420;-77
2022/11/16 07:07:54;;;;;;;30.43;20.70;;;;;;;40.18;39.92;101184.41;5102225;28;20451;-78
2022/11/16 07:10:20;;;;;;;27.83;20.30;;;;;;;39.91;39.73;101183.47;5099548;28;20854;-77
2022/11/16 07:12:47;;;;;;;31.37;21.87;;;;;;;40.23;39.27;101182.34;5095926;28;20453;-75
2022/11/16 07:15:13;;;;;;;29.40;22.10;;;;;;;39.49;40.60;101182.06;5095619;28;20477;-78
2022/11/16 07:17:41;;;;;;;34.57;22.50;;;;;;;39.98;39.42;101183.81;5113086;28;20428;-73
2022/11/16 07:20:07;;;;;;;27.90;22.67;;;;;;;39.94;39.33;101182.03;5114894;28;20782;-69
2022/11/16 07:22:35;;;;;;;52.00;21.90;;;;;;;40.37;38.99;101184.94;5116587;28;20483;-69
2022/11/16 07:25:01;;;;;;;40.27;24.97;;;;;;;40.27;39.39;101187.97;5116462;28;20400;-69
2022/11/16 07:27:27;;;;;;;31.30;22.57;;;;;;;40.02;39.34;101184.81;5116154;28;20430;-70
2022/11/16 07:29:53;;;;;;;26.63;17.60;;;;;;;39.30;40.91;101189.59;5102437;28;20939;-75
2022/11/16 07:32:19;;;;;;;28.17;19.47;;;;;;;39.52;40.94;101191.50;5101302;28;20993;-75
2022/11/16 07:34:46;;;;;;;26.80;22.07;;;;;;;39.86;40.26;101193.66;5093937;28;20428;-75
2022/11/16 07:37:12;;;;;;;35.37;21.37;;;;;;;39.44;40.95;101198.47;5084567;28;20441;-73
2022/11/16 07:39:37;;;;;;;32.03;21.80;;;;;;;39.77;40.03;101190.88;5103601;28;20488;-74
2022/11/16 07:42:10;;;;;;;27.10;19.30;;;;;;;40.53;38.80;101194.28;5102827;28;20929;-74
2022/11/16 07:44:37;;;;;;;25.57;20.80;;;;;;;40.44;39.23;101185.28;5101675;28;20269;-75
2022/11/16 07:47:04;;;;;;;50.83;22.80;;;;;;;40.43;38.94;101196.47;5103347;28;20412;-70
2022/11/16 07:49:31;;;;;;;28.30;21.17;;;;;;;40.55;38.54;101194.78;5101968;28;20986;-72
2022/11/16 07:51:57;;;;;;;29.63;21.97;;;;;;;40.54;38.71;101197.81;5120184;27;20972;-72
2022/11/16 07:54:23;;;;;;;26.33;20.20;;;;;;;39.49;40.80;101192.94;5105485;27;20803;-74
2022/11/16 07:56:50;;;;;;;29.07;20.37;;;;;;;40.30;39.04;101190.03;5106662;27;20440;-75
2022/11/16 07:59:20;;;;;;;28.80;18.90;;;;;;;39.55;40.10;101199.84;5123489;27;20434;-74
2022/11/16 08:01:47;;;;;;;38.10;20.00;;;;;;;39.00;41.38;101208.16;5123786;27;20474;-74
2022/11/16 08:04:14;;;;;;;23.10;15.77;;;;;;;39.28;40.71;101202.66;5125187;27;20465;-73
2022/11/16 08:06:40;;;;;;;23.07;16.80;;;;;;;39.94;39.55;101201.84;5105293;27;20411;-74
2022/11/16 08:09:15;;;;;;;24.63;18.53;;;;;;;40.31;38.93;101202.50;5104710;27;20794;-74
2022/11/16 08:11:41;;;;;;;34.33;17.73;;;;;;;40.30;38.82;101203.63;5123637;27;20408;-76
2022/11/16 08:14:07;;;;;;;22.20;16.80;;;;;;;39.71;40.32;101203.00;5105171;27;20449;-74
2022/11/16 08:16:33;;;;;;;20.63;15.53;;;;;;;40.34;39.07;101199.19;5106494;27;20827;-72
2022/11/16 08:19:01;;;;;;;21.27;16.77;;;;;;;40.34;38.66;101206.53;5105321;27;20397;-72
2022/11/16 08:21:27;;;;;;;32.67;17.97;;;;;;;40.84;38.55;101209.72;5097636;28;20415;-78
2022/11/16 08:23:53;;;;;;;25.77;17.03;;;;;;;41.02;37.51;101210.56;5079857;28;20430;-73
2022/11/16 08:26:20;;;;;;;24.23;17.60;;;;;;;40.83;38.25;101212.75;5101586;27;20450;-80
2022/11/16 08:28:52;;;;;;;30.57;16.77;;;;;;;41.17;37.20;101212.78;5113000;27;20514;-72
2022/11/16 08:31:28;;;;;;;36.23;20.27;;;;;;;40.68;37.78;101222.94;5114566;27;20453;-73
2022/11/16 08:33:55;;;;;;;17.17;12.50;;;;;;;40.25;38.91;101210.00;5106275;27;20468;-73
2022/11/16 08:36:21;;;;;;;21.33;13.40;;;;;;;40.29;38.61;101213.69;5116608;27;20480;-74
2022/11/16 08:38:49;;;;;;;18.43;13.13;;;;;;;40.76;37.23;101207.75;5116761;27;20427;-72
2022/11/16 08:41:16;;;;;;;20.90;14.03;;;;;;;40.96;37.57;101206.38;5116611;27;20520;-72
2022/11/16 08:43:43;;;;;;;27.70;12.50;;;;;;;41.04;37.26;101213.75;5109125;28;20423;-73
2022/11/16 08:46:10;;;;;;;17.83;12.37;;;;;;;40.48;37.90;101221.63;5111804;27;20433;-74
2022/11/16 08:48:37;;;;;;;24.33;16.03;;;;;;;40.81;37.27;101222.00;5110530;27;20855;-72
2022/11/16 08:51:12;;;;;;;21.10;11.20;;;;;;;40.84;38.01;101217.06;5107162;27;20471;-73
2022/11/16 08:53:38;;;;;;;26.03;12.57;;;;;;;41.09;37.20;101224.47;5104672;27;20470;-76
2022/11/16 08:56:12;;;;;;;17.07;12.63;;;;;;;40.75;37.50;101222.47;5086755;27;20421;-79
2022/11/16 08:58:39;;;;;;;20.53;12.53;;;;;;;40.80;37.34;101219.63;5103272;27;20454;-77
2022/11/16 09:01:13;;;;;;;17.87;12.33;;;;;;;40.98;36.81;101223.19;5110709;27;20929;-78
2022/11/16 09:03:40;;;;;;;18.33;11.40;;;;;;;41.35;36.35;101219.06;5104572;28;20510;-73
2022/11/16 09:06:08;;;;;;;19.60;12.50;;;;;;;41.74;36.13;101214.50;5123822;27;20407;-79
2022/11/16 09:08:36;;;;;;;17.97;9.97;;;;;;;41.77;35.84;101214.69;5106627;27;20423;-73
2022/11/16 09:11:07;;;;;;;18.97;11.80;;;;;;;41.80;35.55;101208.56;5104188;27;20431;-72
2022/11/16 09:13:33;;;;;;;13.00;10.10;;;;;;;41.40;35.99;101209.94;5122198;27;20452;-75
2022/11/16 09:16:00;;;;;;;17.27;9.33;;;;;;;41.34;35.58;101218.25;5103395;27;20482;-72
2022/11/16 09:18:28;;;;;;;21.87;11.00;;;;;;;41.50;35.93;101210.41;5123374;27;20407;-77
2022/11/16 09:20:56;;;;;;;22.60;14.30;;;;;;;41.80;35.34;101203.13;5122289;27;20419;-78
2022/11/16 09:23:22;;;;;;;17.47;13.13;;;;;;;41.81;35.36;101209.41;5103669;28;20419;-78
2022/11/16 09:25:48;;;;;;;19.90;12.03;;;;;;;41.91;35.77;101200.84;5103776;27;20416;-78
2022/11/16 09:28:17;;;;;;;21.83;14.20;;;;;;;42.09;35.69;101194.22;5117858;27;20419;-79
2022/11/16 09:30:44;;;;;;;23.63;12.83;;;;;;;42.26;35.18;101195.28;5094675;28;20206;-78
2022/11/16 09:33:11;;;;;;;18.50;11.13;;;;;;;41.82;35.52;101192.72;5111486;27;20457;-80
2022/11/16 09:35:37;;;;;;;18.70;11.47;;;;;;;41.96;35.63;101186.25;5107309;27;20411;-78
2022/11/16 09:38:03;;;;;;;19.30;11.73;;;;;;;41.98;35.19;101184.00;5104485;27;20412;-79
2022/11/16 09:40:43;;;;;;;24.00;11.17;;;;;;;42.06;35.53;101188.63;5115501;27;20178;-80
2022/11/16 09:43:37;;;;;;;18.77;9.57;;;;;;;42.00;35.35;101179.03;5115548;27;20425;-78
2022/11/16 09:46:20;;;;;;;17.70;8.90;;;;;;;42.18;34.91;101182.50;5114691;27;20467;-79
2022/11/16 09:48:49;;;;;;;20.90;9.03;;;;;;;42.35;34.61;101183.19;5128444;27;21010;-78
2022/11/16 09:51:20;;;;;;;17.03;9.83;;;;;;;42.20;34.80;101175.59;5118220;27;20471;-82
2022/11/16 09:53:59;;;;;;;22.43;9.30;;;;;;;42.16;35.01;101171.91;5107611;28;20455;-77
2022/11/16 09:56:29;;;;;;;16.90;10.30;;;;;;;42.21;34.71;101170.94;5097066;28;20477;-75
2022/11/16 09:59:34;;;;;;;22.50;11.10;;;;;;;41.97;35.22;101179.69;5094960;28;20858;-73
2022/11/16 10:02:25;;;;;;;30.87;11.17;;;;;;;41.80;35.49;101173.16;5097406;28;20546;-73
2022/11/16 10:05:02;;;;;;;17.60;9.50;;;;;;;41.96;34.64;101164.47;5077587;28;20424;-73
2022/11/16 10:07:40;;;;;;;14.53;8.57;;;;;;;42.01;34.55;101153.38;5102435;27;20458;-73
2022/11/16 10:10:20;;;;;;;12.60;9.17;;;;;;;41.38;36.38;101149.56;5101940;28;20420;-73
2022/11/16 10:13:25;;;;;;;22.03;8.40;;;;;;;42.20;34.85;101142.88;5111064;28;20463;-77
2022/11/16 10:16:09;;;;;;;17.43;7.80;;;;;;;42.17;34.87;101145.47;5093840;28;20453;-70
2022/11/16 10:18:50;;;;;;;13.70;9.60;;;;;;;41.95;34.74;101143.78;5110811;28;20442;-72
2022/11/16 10:21:25;;;;;;;17.17;8.10;;;;;;;41.69;35.39;101131.03;5105011;28;20830;-74
2022/11/16 10:24:04;;;;;;;20.00;8.17;;;;;;;42.23;34.76;101122.31;5102756;28;20415;-71
2022/11/16 10:26:41;;;;;;;14.10;7.60;;;;;;;42.13;35.45;101121.56;5102927;28;20416;-72
2022/11/16 10:29:14;;;;;;;17.73;6.97;;;;;;;42.11;34.50;101110.19;5103148;28;20427;-72
2022/11/16 10:31:58;;;;;;;11.70;9.23;;;;;;;42.29;34.30;101104.66;5104454;28;20423;-72
2022/11/16 10:34:33;;;;;;;27.80;8.87;;;;;;;41.98;34.79;101100.31;5104229;28;20416;-72
2022/11/16 10:37:02;;;;;;;13.87;7.53;;;;;;;42.35;34.75;101109.56;5103470;28;20415;-71
2022/11/16 10:39:32;;;;;;;14.40;9.60;;;;;;;42.45;34.57;101099.41;5092093;28;20506;-72
2022/11/16 10:42:03;;;;;;;15.57;9.73;;;;;;;42.55;34.33;101090.84;5088518;28;20933;-72
2022/11/16 10:44:43;;;;;;;17.07;7.57;;;;;;;42.39;34.28;101094.16;5085799;28;20427;-75
2022/11/16 10:47:24;;;;;;;16.20;8.77;;;;;;;42.07;34.86;101097.56;5097033;28;20427;-78
2022/11/16 10:49:58;;;;;;;17.73;9.40;;;;;;;42.25;34.25;101096.34;5082165;28;20438;-72
2022/11/16 10:52:24;;;;;;;15.20;9.20;;;;;;;42.23;34.81;101095.88;5132688;28;20498;-74
2022/11/16 10:54:51;;;;;;;17.23;8.20;;;;;;;42.14;35.10;101095.09;5114865;28;20915;-74
2022/11/16 10:57:17;;;;;;;13.50;8.03;;;;;;;42.58;34.37;101092.94;5094261;28;20487;-72
2022/11/16 10:59:46;;;;;;;15.03;10.30;;;;;;;42.40;34.76;101089.50;5112234;28;20423;-72
2022/11/16 11:02:33;;;;;;;11.73;7.90;;;;;;;42.49;34.61;101092.19;5106820;28;20433;-72
2022/11/16 11:05:04;;;;;;;22.83;8.93;;;;;;;42.55;34.33;101094.38;5113183;28;20511;-74
2022/11/16 11:07:33;;;;;;;13.53;8.00;;;;;;;42.28;34.79;101094.88;5104079;28;20932;-72
2022/11/16 11:09:59;;;;;;;18.13;9.57;;;;;;;42.25;34.91;101103.72;5091496;28;20426;-72
2022/11/16 11:12:37;;;;;;;12.90;8.93;;;;;;;42.43;34.23;101104.41;5107985;28;20450;-76
2022/11/16 11:15:21;;;;;;;24.43;10.23;;;;;;;42.38;34.74;101100.75;5104511;28;20970;-77
2022/11/16 11:18:08;;;;;;;17.17;9.03;;;;;;;42.53;34.85;101091.16;5122077;28;20408;-73
2022/11/16 11:20:34;;;;;;;14.53;8.00;;;;;;;42.38;34.64;101081.66;5104844;28;20427;-70
2022/11/16 11:23:17;;;;;;;16.63;8.53;;;;;;;42.35;34.69;101076.06;5076796;28;20435;-71
2022/11/16 11:25:59;;;;;;;24.53;8.30;;;;;;;42.14;34.95;101067.84;5076849;28;20844;-71
2022/11/16 11:28:30;;;;;;;27.37;10.10;;;;;;;41.55;36.32;101068.59;5116850;27;20414;-75
2022/11/16 11:30:58;;;;;;;23.87;10.27;;;;;;;42.72;34.46;101060.69;5107421;27;20446;-74
2022/11/16 11:33:28;;;;;;;21.83;10.17;;;;;;;42.88;34.64;101061.69;5106848;28;20865;-72
2022/11/16 11:36:00;;;;;;;16.27;8.87;;;;;;;42.70;34.60;101051.25;5106883;27;20859;-78
2022/11/16 11:38:26;;;;;;;15.23;9.00;;;;;;;42.16;35.06;101060.16;5097783;28;20423;-76
2022/11/16 11:41:01;;;;;;;22.27;8.43;;;;;;;42.32;35.06;101060.38;5098176;28;20427;-79
2022/11/16 11:43:28;;;;;;;18.80;9.97;;;;;;;42.08;35.11;101053.59;5097743;28;20407;-80
2022/11/16 11:46:23;;;;;;;15.97;7.90;;;;;;;42.76;34.29;101045.25;5116325;28;20885;-81
2022/11/16 11:49:00;;;;;;;22.07;8.73;;;;;;;42.89;34.07;101035.97;5100822;28;20942;-78
2022/11/16 11:51:34;;;;;;;19.30;7.90;;;;;;;42.80;33.85;101031.75;5093995;28;20471;-79
2022/11/16 11:54:04;;;;;;;12.93;9.33;;;;;;;42.80;34.27;101026.31;5103321;28;20404;-73
2022/11/16 11:56:32;;;;;;;18.73;8.73;;;;;;;42.45;34.49;101025.78;5107417;28;20416;-75
2022/11/16 11:58:59;;;;;;;16.40;8.77;;;;;;;42.43;35.05;101023.41;5114162;28;20420;-74
2022/11/16 12:02:01;;;;;;;21.60;8.80;;;;;;;42.24;34.81;101017.63;5097454;28;20485;-78
2022/11/16 12:04:42;;;;;;;15.60;8.50;;;;;;;42.77;34.73;101025.03;5114163;28;20958;-77